createdAt,value
2019-06-01T04:03:51.735Z,98.071289
2019-06-01T04:07:19.792Z,97.827148
2019-06-01T04:10:47.833Z,97.363281
2019-06-01T04:14:15.924Z,97.015381
2019-06-01T04:17:43.995Z,97.418213
2019-06-01T04:21:13.086Z,96.807861
2019-06-01T04:24:41.122Z,97.015381
2019-06-01T04:28:12.573Z,97.216797
2019-06-01T04:31:40.400Z,96.710205
2019-06-01T04:35:08.983Z,96.911621
2019-06-01T04:38:37.481Z,96.405029
2019-06-01T04:42:07.601Z,96.002197
2019-06-01T04:45:38.582Z,96.203613
2019-06-01T04:49:08.525Z,96.203613
2019-06-01T04:52:39.667Z,96.606445
2019-06-01T04:56:08.991Z,96.606445
2019-06-01T04:59:40.799Z,95.495605
2019-06-01T05:03:10.693Z,95.855713
2019-06-01T05:06:40.903Z,95.245361
2019-06-01T05:10:11.257Z,95.043945
2019-06-01T05:13:41.061Z,95.446777
2019-06-01T05:17:10.133Z,95.043945
2019-06-01T05:20:41.316Z,95.245361
2019-06-01T05:24:10.577Z,95.043945
2019-06-01T05:27:41.476Z,94.73877
2019-06-01T05:31:14.572Z,95.349121
2019-06-01T05:34:45.517Z,95.141602
2019-06-01T05:38:14.252Z,95.141602
2019-06-01T05:41:42.801Z,95.245361
2019-06-01T05:45:12.926Z,94.842529
2019-06-01T05:48:44.786Z,95.245361
2019-06-01T05:52:12.953Z,95.043945
2019-06-01T05:55:43.176Z,95.245361
2019-06-01T05:59:11.853Z,95.202637
2019-06-01T06:02:41.504Z,95.709229
2019-06-01T06:06:09.817Z,94.793701
2019-06-01T06:09:38.979Z,95.404053
2019-06-01T06:13:08.008Z,95.404053
2019-06-01T06:16:39.087Z,95.404053
2019-06-01T06:20:07.518Z,95.404053
2019-06-01T06:23:36.816Z,94.647217
2019-06-01T06:27:05.163Z,94.348145
2019-06-01T06:30:33.298Z,94.549561
2019-06-01T06:34:01.380Z,94.549561
2019-06-01T06:37:29.567Z,93.493652
2019-06-01T06:40:58.671Z,92.376709
2019-06-01T06:44:26.824Z,91.162109
2019-06-01T06:47:54.980Z,92.028809
2019-06-01T06:51:25.420Z,89.404297
2019-06-01T06:54:53.490Z,89.910889
2019-06-01T06:58:24.414Z,90.270996
2019-06-01T07:01:52.760Z,88.95874
2019-06-01T07:05:21.331Z,90.06958
2019-06-01T07:08:50.931Z,88.104248
2019-06-01T07:12:21.151Z,87.902832
2019-06-01T07:15:52.075Z,87.658691
2019-06-01T07:19:21.544Z,89.129639
2019-06-01T07:22:52.260Z,88.525391
2019-06-01T07:26:21.893Z,88.122559
2019-06-01T07:29:49.391Z,89.093018
2019-06-01T07:33:18.170Z,88.38501
2019-06-01T07:36:48.719Z,84.613037
2019-06-01T07:40:16.968Z,83.80127
2019-06-01T07:43:48.170Z,81.549072
2019-06-01T07:47:16.276Z,80.401611
2019-06-01T07:50:46.544Z,83.825684
2019-06-01T07:54:15.004Z,82.513428
2019-06-01T07:57:44.434Z,80.499268
2019-06-01T08:01:12.298Z,83.117676
2019-06-01T08:04:53.091Z,81.005859
2019-06-01T08:08:15.579Z,81.872559
2019-06-01T08:11:44.637Z,80.865479
2019-06-01T08:15:12.936Z,81.469727
2019-06-01T08:18:41.072Z,81.268311
2019-06-01T08:22:09.255Z,80.664062
2019-06-01T08:25:38.702Z,80.969238
2019-06-01T08:29:07.033Z,79.516602
2019-06-01T08:32:35.532Z,77.868652
2019-06-01T08:36:04.765Z,79.382324
2019-06-01T08:39:34.172Z,77.166748
2019-06-01T08:43:02.266Z,76.928711
2019-06-01T08:46:31.425Z,77.532959
2019-06-01T08:50:00.713Z,81.555176
2019-06-01T08:53:29.966Z,79.644775
2019-06-01T08:56:59.812Z,75.98877
2019-06-01T09:00:28.414Z,76.153564
2019-06-01T09:03:58.964Z,73.608398
2019-06-01T09:07:28.980Z,73.272705
2019-06-01T09:10:57.095Z,74.87793
2019-06-01T09:14:27.190Z,75.640869
2019-06-01T09:17:59.148Z,72.796631
2019-06-01T09:21:29.389Z,72.399902
2019-06-01T09:25:00.479Z,71.228027
2019-06-01T09:28:29.880Z,69.726562
2019-06-01T09:32:01.009Z,70.025635
2019-06-01T09:35:47.565Z,71.466064
2019-06-01T09:39:05.313Z,69.75708
2019-06-01T09:42:35.118Z,71.563721
2019-06-01T09:46:04.143Z,71.466064
2019-06-01T09:49:34.184Z,71.563721
2019-06-01T09:53:02.089Z,71.398926
2019-06-01T09:56:33.899Z,71.600342
2019-06-01T10:00:05.343Z,72.235107
2019-06-01T10:03:34.417Z,72.10083
2019-06-01T10:07:04.358Z,72.839355
2019-06-01T10:10:32.673Z,73.242188
2019-06-01T10:14:03.418Z,72.235107
2019-06-01T10:17:33.180Z,70.996094
2019-06-01T10:21:03.601Z,71.398926
2019-06-01T10:24:32.943Z,71.600342
2019-06-01T10:28:04.681Z,71.966553
2019-06-01T10:31:34.657Z,76.245117
2019-06-01T10:35:06.738Z,72.033691
2019-06-01T10:38:35.202Z,76.11084
2019-06-01T10:42:05.904Z,70.458984
2019-06-01T10:45:33.988Z,73.669434
2019-06-01T10:49:03.050Z,72.86377
2019-06-01T10:52:34.454Z,75.537109
2019-06-01T10:56:06.196Z,72.833252
2019-06-01T10:59:36.275Z,70.794678
2019-06-01T11:03:07.362Z,70.996094
2019-06-01T11:06:43.219Z,68.890381
2019-06-01T11:10:10.835Z,71.557617
2019-06-01T11:13:41.039Z,65.325928
2019-06-01T11:17:10.071Z,67.193604
2019-06-01T11:20:39.294Z,68.157959
2019-06-01T11:24:09.372Z,66.52832
2019-06-01T11:27:39.688Z,69.592285
2019-06-01T11:31:09.727Z,62.774658
2019-06-01T11:34:40.179Z,62.969971
2019-06-01T11:38:10.023Z,64.27002
2019-06-01T11:41:39.118Z,67.260742
2019-06-01T11:45:09.325Z,60.845947
2019-06-01T11:48:39.070Z,65.203857
2019-06-01T11:52:09.784Z,61.61499
2019-06-01T11:55:39.115Z,59.851074
2019-06-01T11:59:10.085Z,60.949707
2019-06-01T12:02:39.282Z,64.709473
2019-06-01T12:06:10.492Z,61.38916
2019-06-01T12:09:39.779Z,62.982178
2019-06-01T12:13:10.811Z,60.961914
2019-06-01T12:16:38.928Z,60.827637
2019-06-01T12:20:10.029Z,60.107422
2019-06-01T12:23:38.953Z,59.082031
2019-06-01T12:27:07.414Z,62.463379
2019-06-01T12:30:35.479Z,59.70459
2019-06-01T12:34:03.723Z,61.157227
2019-06-01T12:37:45.789Z,60.290527
2019-06-01T12:41:06.968Z,60.290527
2019-06-01T12:44:35.232Z,62.255859
2019-06-01T12:48:06.394Z,63.879395
2019-06-01T12:51:34.656Z,63.409424
2019-06-01T12:55:03.753Z,62.908936
2019-06-01T12:58:32.980Z,63.677979
2019-06-01T13:02:01.087Z,64.447021
2019-06-01T13:05:29.170Z,63.317871
2019-06-01T13:08:57.389Z,64.880371
2019-06-01T13:12:25.589Z,61.993408
2019-06-01T13:15:53.792Z,62.194824
2019-06-01T13:19:22.952Z,64.978027
2019-06-01T13:22:51.912Z,60.473633
2019-06-01T13:26:19.191Z,62.463379
2019-06-01T13:29:47.836Z,59.576416
2019-06-01T13:33:15.462Z,62.231445
2019-06-01T13:36:44.557Z,62.530518
2019-06-01T13:40:13.767Z,59.25293
2019-06-01T13:43:45.101Z,64.691162
2019-06-01T13:47:17.230Z,64.984131
2019-06-01T13:50:47.798Z,61.706543
2019-06-01T13:54:19.528Z,60.119629
2019-06-01T13:57:52.411Z,59.594727
2019-06-01T14:01:21.812Z,58.032227
2019-06-01T14:04:54.102Z,62.701416
2019-06-01T14:08:29.159Z,58.92334
2019-06-01T14:11:58.126Z,58.526611
2019-06-01T14:15:28.222Z,62.5
2019-06-01T14:18:58.394Z,60.089111
2019-06-01T14:22:28.514Z,58.398438
2019-06-01T14:25:58.706Z,59.7229
2019-06-01T14:29:28.805Z,58.428955
2019-06-01T14:32:59.826Z,58.453369
2019-06-01T14:36:30.089Z,59.25293
2019-06-01T14:40:00.147Z,62.005615
2019-06-01T14:43:30.296Z,58.624268
2019-06-01T14:47:05.079Z,58.825684
2019-06-01T14:50:33.193Z,59.918213
2019-06-01T14:54:03.226Z,57.806396
2019-06-01T14:57:33.211Z,57.830811
2019-06-01T15:01:03.132Z,58.1604
2019-06-01T15:04:33.082Z,58.087158
2019-06-01T15:08:03.004Z,58.685303
2019-06-01T15:11:32.948Z,58.184814
2019-06-01T15:15:03.880Z,60.675049
2019-06-01T15:18:32.795Z,58.087158
2019-06-01T15:22:00.758Z,59.80835
2019-06-01T15:25:29.698Z,60.205078
2019-06-01T15:28:58.835Z,62.023926
2019-06-01T15:32:28.613Z,60.72998
2019-06-01T15:35:57.677Z,59.436035
2019-06-01T15:39:27.447Z,59.393311
2019-06-01T15:42:57.296Z,60.717773
2019-06-01T15:46:27.276Z,60.748291
2019-06-01T15:49:55.730Z,61.077881
2019-06-01T15:53:24.152Z,62.475586
2019-06-01T15:56:54.253Z,63.171387
2019-06-01T16:00:25.967Z,61.676025
2019-06-01T16:03:55.035Z,61.273193
2019-06-01T16:07:26.825Z,63.07373
2019-06-01T16:11:01.185Z,61.901855
2019-06-01T16:14:29.795Z,63.031006
2019-06-01T16:17:59.901Z,63.031006
2019-06-01T16:21:51.797Z,63.134766
2019-06-01T16:25:21.461Z,63.262939
2019-06-01T16:28:49.435Z,63.592529
2019-06-01T16:32:17.417Z,64.593506
2019-06-01T16:35:45.393Z,63.891602
2019-06-01T16:39:13.341Z,64.624023
2019-06-01T16:42:41.274Z,64.422607
2019-06-01T16:46:09.212Z,66.424561
2019-06-01T16:49:37.180Z,65.924072
2019-06-01T16:53:06.261Z,65.325928
2019-06-01T16:56:34.746Z,64.825439
2019-06-01T17:00:04.882Z,65.252686
2019-06-01T17:03:33.614Z,65.252686
2019-06-01T17:07:05.000Z,65.985107
2019-06-01T17:10:34.455Z,66.888428
2019-06-01T17:14:02.840Z,66.28418
2019-06-01T17:17:31.314Z,66.088867
2019-06-01T17:21:01.404Z,66.119385
2019-06-01T17:24:32.156Z,67.120361
2019-06-01T17:28:01.069Z,68.42041
2019-06-01T17:31:30.987Z,67.419434
2019-06-01T17:34:58.998Z,68.322754
2019-06-01T17:38:30.301Z,66.821289
2019-06-01T17:41:58.233Z,66.448975
2019-06-01T17:45:28.165Z,68.786621
2019-06-01T17:48:56.084Z,68.31665
2019-06-01T17:52:24.082Z,68.554688
2019-06-01T17:55:52.815Z,69.622803
2019-06-01T17:59:20.736Z,68.920898
2019-06-01T18:02:48.704Z,68.652344
2019-06-01T18:06:16.688Z,69.024658
2019-06-01T18:09:45.636Z,69.525146
2019-06-01T18:13:13.567Z,68.85376
2019-06-01T18:16:41.509Z,69.354248
2019-06-01T18:20:10.924Z,69.689941
2019-06-01T18:23:39.437Z,70.19043
2019-06-01T18:27:08.499Z,70.123291
2019-06-01T18:30:35.753Z,70.257568
2019-06-01T18:34:03.716Z,70.257568
2019-06-01T18:37:32.647Z,70.861816
2019-06-01T18:41:10.503Z,72.607422
2019-06-01T18:44:36.462Z,70.428467
2019-06-01T18:48:04.399Z,71.331787
2019-06-01T18:51:33.322Z,71.331787
2019-06-01T18:55:01.259Z,72.070312
2019-06-01T18:58:31.214Z,71.66748
2019-06-01T19:01:59.152Z,73.31543
2019-06-01T19:05:28.106Z,72.406006
2019-06-01T19:08:56.320Z,73.345947
2019-06-01T19:12:25.561Z,73.144531
2019-06-01T19:15:53.638Z,72.741699
2019-06-01T19:19:21.816Z,72.845459
2019-06-01T19:22:50.646Z,73.248291
2019-06-01T19:26:18.669Z,73.382568
2019-06-01T19:29:46.889Z,73.7854
2019-06-01T19:33:19.199Z,73.883057
2019-06-01T19:36:46.669Z,73.681641
2019-06-01T19:40:17.459Z,73.620605
2019-06-01T19:43:44.925Z,74.42627
2019-06-01T19:47:13.895Z,74.829102
2019-06-01T19:50:44.850Z,74.761963
2019-06-01T19:54:14.972Z,75.164795
2019-06-01T19:57:43.167Z,75.769043
2019-06-01T20:01:14.169Z,75.976562
2019-06-01T20:04:45.710Z,77.423096
2019-06-01T20:08:16.060Z,76.513672
2019-06-01T20:12:00.813Z,76.617432
2019-06-01T20:15:21.533Z,77.11792
2019-06-01T20:18:49.560Z,77.11792
2019-06-01T20:22:17.581Z,77.563477
2019-06-01T20:25:45.549Z,78.771973
2019-06-01T20:29:15.576Z,78.265381
2019-06-01T20:32:46.477Z,79.01001
2019-06-01T20:36:16.107Z,79.11377
2019-06-01T20:39:43.253Z,79.620361
2019-06-01T20:43:12.269Z,78.912354
2019-06-01T20:46:45.237Z,79.656982
2019-06-01T20:50:14.682Z,79.25415
2019-06-01T20:53:46.309Z,79.858398
2019-06-01T20:57:17.365Z,80.200195
2019-06-01T21:00:48.093Z,80.908203
2019-06-01T21:04:18.131Z,81.207275
2019-06-01T21:07:49.165Z,81.854248
2019-06-01T21:11:20.017Z,82.666016
2019-06-01T21:14:48.388Z,82.60498
2019-06-01T21:18:19.248Z,83.856201
2019-06-01T21:21:50.009Z,84.265137
2019-06-01T21:25:18.791Z,84.667969
2019-06-01T21:28:48.932Z,83.795166
2019-06-01T21:32:19.216Z,84.405518
2019-06-01T21:35:48.900Z,85.357666
2019-06-01T21:39:17.478Z,85.296631
2019-06-01T21:43:00.818Z,86.004639
2019-06-01T21:46:26.471Z,86.004639
2019-06-01T21:49:58.436Z,86.047363
2019-06-01T21:53:30.736Z,86.553955
2019-06-01T21:57:07.154Z,85.943604
